sensor_id;sensor_type;location;lat;lon;timestamp;noise_LAeq;noise_LA_min;noise_LA_max;noise_LA01;noise_LA95
67322;Laerm;57666;51.436;5.978;2023-10-08T00:00:06;41.87;36.55;55.76;;
67322;Laerm;57666;51.436;5.978;2023-10-08T00:00:52;42.56;35.74;62.65;;
67322;Laerm;57666;51.436;5.978;2023-10-08T00:01:09;42.47;36.07;56.36;;
67322;Laerm;57666;51.436;5.978;2023-10-08T00:01:59;40.31;36.00;54.98;;
67322;Laerm;57666;51.436;5.978;2023-10-08T00:02:12;37.97;35.68;48.48;;
67322;Laerm;57666;51.436;5.978;2023-10-08T00:02:35;37.06;35.89;40.93;;
67322;Laerm;57666;51.436;5.978;2023-10-08T00:02:49;37.02;35.97;38.07;;
67322;Laerm;57666;51.436;5.978;2023-10-08T00:03:04;37.06;36.00;38.55;;
67322;Laerm;57666;51.436;5.978;2023-10-08T00:03:38;39.24;35.59;57.14;;
67322;Laerm;57666;51.436;5.978;2023-10-08T00:03:53;46.39;36.03;59.56;;
67322;Laerm;57666;51.436;5.978;2023-10-08T00:04:23;38.41;35.70;49.04;;
67322;Laerm;57666;51.436;5.978;2023-10-08T00:04:42;40.71;35.93;53.98;;
67322;Laerm;57666;51.436;5.978;2023-10-08T00:04:57;40.90;36.16;58.45;;
67322;Laerm;57666;51.436;5.978;2023-10-08T00:05:10;38.80;35.69;49.22;;
67322;Laerm;57666;51.436;5.978;2023-10-08T00:05:21;42.51;36.14;58.91;;
67322;Laerm;57666;51.436;5.978;2023-10-08T00:05:41;39.80;35.90;51.58;;
67322;Laerm;57666;51.436;5.978;2023-10-08T00:06:03;37.05;35.54;38.06;;
67322;Laerm;57666;51.436;5.978;2023-10-08T00:06:39;38.40;35.83;52.78;;
67322;Laerm;57666;51.436;5.978;2023-10-08T00:06:55;39.47;36.15;53.72;;
67322;Laerm;57666;51.436;5.978;2023-10-08T00:07:26;38.89;35.92;55.75;;
67322;Laerm;57666;51.436;5.978;2023-10-08T00:07:41;47.03;35.94;64.58;;
67322;Laerm;57666;51.436;5.978;2023-10-08T00:07:53;39.07;36.09;54.26;;
67322;Laerm;57666;51.436;5.978;2023-10-08T00:08:37;38.13;35.89;55.86;;
67322;Laerm;57666;51.436;5.978;2023-10-08T00:08:57;37.11;35.70;40.95;;
67322;Laerm;57666;51.436;5.978;2023-10-08T00:09:10;44.32;35.74;59.79;;
67322;Laerm;57666;51.436;5.978;2023-10-08T00:09:23;46.85;35.80;59.59;;
67322;Laerm;57666;51.436;5.978;2023-10-08T00:09:48;41.39;35.93;55.49;;
67322;Laerm;57666;51.436;5.978;2023-10-08T00:10:13;37.04;35.65;38.43;;
67322;Laerm;57666;51.436;5.978;2023-10-08T00:10:38;37.09;35.97;39.22;;
67322;Laerm;57666;51.436;5.978;2023-10-08T00:10:54;37.14;35.87;42.90;;
67322;Laerm;57666;51.436;5.978;2023-10-08T00:11:13;36.97;35.64;38.14;;
67322;Laerm;57666;51.436;5.978;2023-10-08T00:11:33;37.00;35.91;40.66;;
67322;Laerm;57666;51.436;5.978;2023-10-08T00:11:46;37.46;35.94;43.61;;
67322;Laerm;57666;51.436;5.978;2023-10-08T00:12:03;37.05;35.94;37.92;;
67322;Laerm;57666;51.436;5.978;2023-10-08T00:12:16;37.08;35.93;38.42;;
67322;Laerm;57666;51.436;5.978;2023-10-08T00:12:30;37.05;36.05;39.07;;
67322;Laerm;57666;51.436;5.978;2023-10-08T00:12:41;40.11;36.08;53.53;;
67322;Laerm;57666;51.436;5.978;2023-10-08T00:12:54;37.57;35.77;45.56;;
67322;Laerm;57666;51.436;5.978;2023-10-08T00:13:06;37.48;35.66;44.79;;
67322;Laerm;57666;51.436;5.978;2023-10-08T00:13:19;40.84;36.08;54.95;;
67322;Laerm;57666;51.436;5.978;2023-10-08T00:13:30;37.84;36.02;47.59;;
67322;Laerm;57666;51.436;5.978;2023-10-08T00:13:41;41.25;35.99;52.16;;
67322;Laerm;57666;51.436;5.978;2023-10-08T00:13:57;40.49;35.83;53.37;;
67322;Laerm;57666;51.436;5.978;2023-10-08T00:14:08;37.62;36.04;44.32;;
67322;Laerm;57666;51.436;5.978;2023-10-08T00:15:05;37.09;35.94;40.57;;
67322;Laerm;57666;51.436;5.978;2023-10-08T00:15:28;37.62;35.93;47.88;;
67322;Laerm;57666;51.436;5.978;2023-10-08T00:15:39;37.92;36.01;48.60;;
67322;Laerm;57666;51.436;5.978;2023-10-08T00:16:14;46.72;35.86;64.56;;
67322;Laerm;57666;51.436;5.978;2023-10-08T00:18:06;45.10;35.52;60.95;;
67322;Laerm;57666;51.436;5.978;2023-10-08T00:18:20;40.66;35.92;55.64;;
67322;Laerm;57666;51.436;5.978;2023-10-08T00:18:38;37.52;35.80;48.59;;
67322;Laerm;57666;51.436;5.978;2023-10-08T00:22:20;37.55;36.05;47.54;;
67322;Laerm;57666;51.436;5.978;2023-10-08T00:22:42;44.38;35.90;63.23;;
67322;Laerm;57666;51.436;5.978;2023-10-08T00:23:42;37.47;35.63;48.54;;
67322;Laerm;57666;51.436;5.978;2023-10-08T00:24:33;40.17;35.92;56.53;;
67322;Laerm;57666;51.436;5.978;2023-10-08T00:25:01;37.07;35.92;39.51;;
67322;Laerm;57666;51.436;5.978;2023-10-08T00:25:20;39.96;35.93;54.89;;
67322;Laerm;57666;51.436;5.978;2023-10-08T00:25:36;37.04;35.89;38.30;;
67322;Laerm;57666;51.436;5.978;2023-10-08T00:25:54;37.18;35.97;41.28;;
67322;Laerm;57666;51.436;5.978;2023-10-08T00:26:08;37.56;36.54;39.12;;
67322;Laerm;57666;51.436;5.978;2023-10-08T00:26:24;39.06;37.08;42.12;;
67322;Laerm;57666;51.436;5.978;2023-10-08T00:26:49;43.67;40.19;53.19;;
67322;Laerm;57666;51.436;5.978;2023-10-08T00:27:13;44.82;42.09;49.91;;
67322;Laerm;57666;51.436;5.978;2023-10-08T00:27:31;45.89;39.27;56.16;;
67322;Laerm;57666;51.436;5.978;2023-10-08T00:27:55;40.60;37.67;53.03;;
67322;Laerm;57666;51.436;5.978;2023-10-08T00:28:09;39.52;36.99;51.27;;
67322;Laerm;57666;51.436;5.978;2023-10-08T00:28:23;39.59;36.94;51.84;;
67322;Laerm;57666;51.436;5.978;2023-10-08T00:28:38;41.57;36.79;57.77;;
67322;Laerm;57666;51.436;5.978;2023-10-08T00:28:59;37.88;36.14;47.05;;
67322;Laerm;57666;51.436;5.978;2023-10-08T00:29:10;40.51;36.39;52.87;;
67322;Laerm;57666;51.436;5.978;2023-10-08T00:29:34;41.89;36.40;61.82;;
67322;Laerm;57666;51.436;5.978;2023-10-08T00:29:50;40.18;35.86;52.71;;
67322;Laerm;57666;51.436;5.978;2023-10-08T00:30:01;46.65;36.19;60.66;;
67322;Laerm;57666;51.436;5.978;2023-10-08T00:30:55;37.60;35.85;51.30;;
67322;Laerm;57666;51.436;5.978;2023-10-08T00:31:30;37.11;35.82;41.20;;
67322;Laerm;57666;51.436;5.978;2023-10-08T00:31:45;37.08;35.68;42.38;;
67322;Laerm;57666;51.436;5.978;2023-10-08T00:32:09;37.39;35.72;47.43;;
67322;Laerm;57666;51.436;5.978;2023-10-08T00:32:28;37.21;35.98;44.65;;
67322;Laerm;57666;51.436;5.978;2023-10-08T00:32:59;37.08;35.84;38.27;;
67322;Laerm;57666;51.436;5.978;2023-10-08T00:33:10;37.06;35.83;38.10;;
67322;Laerm;57666;51.436;5.978;2023-10-08T00:33:27;37.07;36.02;38.28;;
67322;Laerm;57666;51.436;5.978;2023-10-08T00:33:40;37.05;36.13;38.12;;
67322;Laerm;57666;51.436;5.978;2023-10-08T00:34:06;37.08;35.96;38.19;;
67322;Laerm;57666;51.436;5.978;2023-10-08T00:34:21;37.07;35.72;38.44;;
67322;Laerm;57666;51.436;5.978;2023-10-08T00:34:35;37.03;35.92;38.16;;
67322;Laerm;57666;51.436;5.978;2023-10-08T00:34:54;37.06;36.08;38.16;;
67322;Laerm;57666;51.436;5.978;2023-10-08T00:35:10;37.02;35.99;37.99;;
67322;Laerm;57666;51.436;5.978;2023-10-08T00:35:36;36.98;35.69;38.37;;
67322;Laerm;57666;51.436;5.978;2023-10-08T00:36:02;40.19;35.91;58.40;;
67322;Laerm;57666;51.436;5.978;2023-10-08T00:36:38;37.05;35.88;38.28;;
67322;Laerm;57666;51.436;5.978;2023-10-08T00:36:51;37.57;35.55;46.97;;
67322;Laerm;57666;51.436;5.978;2023-10-08T00:37:05;38.19;35.94;48.21;;
67322;Laerm;57666;51.436;5.978;2023-10-08T00:37:23;37.05;36.04;39.02;;
67322;Laerm;57666;51.436;5.978;2023-10-08T00:37:49;37.02;35.58;38.37;;
67322;Laerm;57666;51.436;5.978;2023-10-08T00:38:02;39.64;35.86;50.76;;
67322;Laerm;57666;51.436;5.978;2023-10-08T00:38:28;37.34;35.89;46.24;;
67322;Laerm;57666;51.436;5.978;2023-10-08T00:38:47;37.10;35.79;41.74;;
67322;Laerm;57666;51.436;5.978;2023-10-08T00:39:14;42.01;35.82;58.64;;
67322;Laerm;57666;51.436;5.978;2023-10-08T00:39:48;37.25;35.79;44.30;;
67322;Laerm;57666;51.436;5.978;2023-10-08T00:40:04;37.15;36.03;39.54;;
67322;Laerm;57666;51.436;5.978;2023-10-08T00:40:22;37.10;35.78;38.28;;
67322;Laerm;57666;51.436;5.978;2023-10-08T00:40:37;37.22;36.21;38.21;;
67322;Laerm;57666;51.436;5.978;2023-10-08T00:40:49;37.08;36.08;38.33;;
67322;Laerm;57666;51.436;5.978;2023-10-08T00:41:03;37.11;36.01;38.21;;
67322;Laerm;57666;51.436;5.978;2023-10-08T00:41:21;37.82;36.16;46.36;;
67322;Laerm;57666;51.436;5.978;2023-10-08T00:41:47;37.69;36.11;43.22;;
67322;Laerm;57666;51.436;5.978;2023-10-08T00:41:59;37.18;35.77;38.53;;
67322;Laerm;57666;51.436;5.978;2023-10-08T00:42:18;38.55;36.09;53.14;;
67322;Laerm;57666;51.436;5.978;2023-10-08T00:42:41;37.95;35.73;49.61;;
67322;Laerm;57666;51.436;5.978;2023-10-08T00:43:04;37.39;35.95;43.95;;
67322;Laerm;57666;51.436;5.978;2023-10-08T00:43:29;37.11;36.00;38.26;;
67322;Laerm;57666;51.436;5.978;2023-10-08T00:43:47;42.23;35.94;61.49;;
67322;Laerm;57666;51.436;5.978;2023-10-08T00:44:16;37.16;35.87;44.72;;
67322;Laerm;57666;51.436;5.978;2023-10-08T00:44:45;37.10;35.97;38.24;;
67322;Laerm;57666;51.436;5.978;2023-10-08T00:45:07;37.11;35.68;38.16;;
67322;Laerm;57666;51.436;5.978;2023-10-08T00:45:20;37.27;35.77;45.70;;
67322;Laerm;57666;51.436;5.978;2023-10-08T00:45:45;40.43;36.10;57.29;;
67322;Laerm;57666;51.436;5.978;2023-10-08T00:46:02;37.07;35.80;38.26;;
67322;Laerm;57666;51.436;5.978;2023-10-08T00:46:21;37.15;35.88;38.23;;
67322;Laerm;57666;51.436;5.978;2023-10-08T00:47:00;37.23;35.99;42.94;;
67322;Laerm;57666;51.436;5.978;2023-10-08T00:47:12;37.12;35.96;39.34;;
67322;Laerm;57666;51.436;5.978;2023-10-08T00:47:28;37.16;35.86;38.45;;
67322;Laerm;57666;51.436;5.978;2023-10-08T00:47:54;37.85;36.01;52.26;;
67322;Laerm;57666;51.436;5.978;2023-10-08T00:48:06;37.19;35.98;38.63;;
67322;Laerm;57666;51.436;5.978;2023-10-08T00:48:20;37.36;36.05;38.40;;
67322;Laerm;57666;51.436;5.978;2023-10-08T00:48:45;37.77;36.23;44.96;;
67322;Laerm;57666;51.436;5.978;2023-10-08T00:48:57;38.32;36.65;39.97;;
67322;Laerm;57666;51.436;5.978;2023-10-08T00:49:11;38.49;37.26;39.96;;
67322;Laerm;57666;51.436;5.978;2023-10-08T00:49:43;39.09;37.23;41.96;;
67322;Laerm;57666;51.436;5.978;2023-10-08T00:50:19;44.25;38.77;48.82;;
67322;Laerm;57666;51.436;5.978;2023-10-08T00:50:34;44.48;41.52;48.52;;
67322;Laerm;57666;51.436;5.978;2023-10-08T00:50:58;42.45;37.93;51.43;;
67322;Laerm;57666;51.436;5.978;2023-10-08T00:51:25;44.02;35.92;62.33;;
67322;Laerm;57666;51.436;5.978;2023-10-08T00:51:41;38.02;35.83;50.48;;
67322;Laerm;57666;51.436;5.978;2023-10-08T00:51:52;39.39;35.71;51.49;;
67322;Laerm;57666;51.436;5.978;2023-10-08T00:52:17;37.55;35.76;50.30;;
67322;Laerm;57666;51.436;5.978;2023-10-08T00:52:42;37.29;35.73;42.39;;
67322;Laerm;57666;51.436;5.978;2023-10-08T00:53:08;37.07;35.65;38.47;;
67322;Laerm;57666;51.436;5.978;2023-10-08T00:53:37;37.31;35.56;42.37;;
67322;Laerm;57666;51.436;5.978;2023-10-08T00:54:01;37.29;36.01;43.80;;
67322;Laerm;57666;51.436;5.978;2023-10-08T00:54:24;40.54;36.02;58.41;;
67322;Laerm;57666;51.436;5.978;2023-10-08T00:54:42;37.37;36.22;40.52;;
67322;Laerm;57666;51.436;5.978;2023-10-08T00:55:08;37.25;35.74;40.35;;
67322;Laerm;57666;51.436;5.978;2023-10-08T00:55:22;37.13;36.19;38.10;;
67322;Laerm;57666;51.436;5.978;2023-10-08T00:55:41;37.13;35.94;39.54;;
67322;Laerm;57666;51.436;5.978;2023-10-08T00:56:08;37.40;35.72;43.84;;
67322;Laerm;57666;51.436;5.978;2023-10-08T00:56:36;37.62;35.87;45.68;;
67322;Laerm;57666;51.436;5.978;2023-10-08T00:57:10;37.74;35.99;47.07;;
67322;Laerm;57666;51.436;5.978;2023-10-08T00:57:25;37.35;35.95;45.07;;
67322;Laerm;57666;51.436;5.978;2023-10-08T00:57:38;37.40;36.11;40.75;;
67322;Laerm;57666;51.436;5.978;2023-10-08T00:57:52;37.25;36.16;39.36;;
67322;Laerm;57666;51.436;5.978;2023-10-08T00:58:15;37.30;35.80;40.72;;
67322;Laerm;57666;51.436;5.978;2023-10-08T00:58:45;37.53;36.04;45.46;;
67322;Laerm;57666;51.436;5.978;2023-10-08T00:59:04;37.13;35.52;38.76;;
67322;Laerm;57666;51.436;5.978;2023-10-08T00:59:24;42.93;36.19;52.73;;
67322;Laerm;57666;51.436;5.978;2023-10-08T00:59:41;37.63;36.34;40.71;;
67322;Laerm;57666;51.436;5.978;2023-10-08T01:00:02;37.49;35.85;43.16;;
67322;Laerm;57666;51.436;5.978;2023-10-08T01:00:21;37.79;35.96;49.92;;
67322;Laerm;57666;51.436;5.978;2023-10-08T01:00:37;37.41;36.18;41.46;;
67322;Laerm;57666;51.436;5.978;2023-10-08T01:00:54;37.40;36.09;43.52;;
67322;Laerm;57666;51.436;5.978;2023-10-08T01:01:16;37.31;36.17;39.85;;
67322;Laerm;57666;51.436;5.978;2023-10-08T01:01:30;37.39;36.22;43.44;;
67322;Laerm;57666;51.436;5.978;2023-10-08T01:01:45;37.53;36.05;41.01;;
67322;Laerm;57666;51.436;5.978;2023-10-08T01:02:09;37.42;36.03;43.01;;
67322;Laerm;57666;51.436;5.978;2023-10-08T01:02:33;37.31;35.99;41.45;;
67322;Laerm;57666;51.436;5.978;2023-10-08T01:03:05;37.42;35.94;45.11;;
67322;Laerm;57666;51.436;5.978;2023-10-08T01:03:27;37.34;35.78;43.91;;
67322;Laerm;57666;51.436;5.978;2023-10-08T01:03:40;37.17;35.97;39.29;;
67322;Laerm;57666;51.436;5.978;2023-10-08T01:04:00;37.10;36.04;38.25;;
67322;Laerm;57666;51.436;5.978;2023-10-08T01:04:18;37.23;36.07;38.62;;
67322;Laerm;57666;51.436;5.978;2023-10-08T01:04:36;37.22;36.12;40.03;;
67322;Laerm;57666;51.436;5.978;2023-10-08T01:04:50;37.19;35.79;38.84;;
67322;Laerm;57666;51.436;5.978;2023-10-08T01:05:01;37.03;35.69;38.21;;
67322;Laerm;57666;51.436;5.978;2023-10-08T01:05:17;37.20;36.18;38.57;;
67322;Laerm;57666;51.436;5.978;2023-10-08T01:05:49;37.19;36.06;39.98;;
67322;Laerm;57666;51.436;5.978;2023-10-08T01:06:02;37.25;36.15;38.34;;
67322;Laerm;57666;51.436;5.978;2023-10-08T01:06:14;37.17;35.82;39.97;;
67322;Laerm;57666;51.436;5.978;2023-10-08T01:06:30;37.16;36.13;38.44;;
67322;Laerm;57666;51.436;5.978;2023-10-08T01:06:44;37.22;35.80;40.43;;
67322;Laerm;57666;51.436;5.978;2023-10-08T01:07:06;37.27;36.00;40.08;;
67322;Laerm;57666;51.436;5.978;2023-10-08T01:07:37;37.39;35.66;42.86;;
67322;Laerm;57666;51.436;5.978;2023-10-08T01:08:02;37.24;36.09;42.02;;
67322;Laerm;57666;51.436;5.978;2023-10-08T01:08:24;37.30;36.23;40.00;;
67322;Laerm;57666;51.436;5.978;2023-10-08T01:10:08;37.47;35.83;47.12;;
67322;Laerm;57666;51.436;5.978;2023-10-08T01:10:20;37.25;35.87;39.32;;
67322;Laerm;57666;51.436;5.978;2023-10-08T01:10:39;37.19;35.97;38.79;;
67322;Laerm;57666;51.436;5.978;2023-10-08T01:10:57;37.15;35.83;38.16;;
67322;Laerm;57666;51.436;5.978;2023-10-08T01:11:20;37.19;35.97;40.90;;
67322;Laerm;57666;51.436;5.978;2023-10-08T01:12:39;37.20;35.88;47.24;;
67322;Laerm;57666;51.436;5.978;2023-10-08T01:13:14;37.15;35.91;38.24;;
67322;Laerm;57666;51.436;5.978;2023-10-08T01:13:32;37.15;35.87;38.28;;
67322;Laerm;57666;51.436;5.978;2023-10-08T01:13:55;37.20;35.83;41.00;;
67322;Laerm;57666;51.436;5.978;2023-10-08T01:14:11;37.23;36.07;39.01;;
67322;Laerm;57666;51.436;5.978;2023-10-08T01:14:25;37.14;35.86;38.17;;
67322;Laerm;57666;51.436;5.978;2023-10-08T01:14:45;37.42;35.96;45.73;;
67322;Laerm;57666;51.436;5.978;2023-10-08T01:15:10;37.24;35.84;38.82;;
67322;Laerm;57666;51.436;5.978;2023-10-08T01:15:32;37.26;36.01;40.27;;
67322;Laerm;57666;51.436;5.978;2023-10-08T01:15:46;37.17;35.93;38.43;;
67322;Laerm;57666;51.436;5.978;2023-10-08T01:16:00;37.15;36.16;38.22;;
67322;Laerm;57666;51.436;5.978;2023-10-08T01:16:12;37.32;36.11;42.97;;
67322;Laerm;57666;51.436;5.978;2023-10-08T01:16:24;37.41;36.19;44.99;;
67322;Laerm;57666;51.436;5.978;2023-10-08T01:17:06;41.54;36.03;52.42;;
67322;Laerm;57666;51.436;5.978;2023-10-08T01:17:17;37.57;36.11;42.06;;
67322;Laerm;57666;51.436;5.978;2023-10-08T01:17:29;37.45;36.24;38.66;;
67322;Laerm;57666;51.436;5.978;2023-10-08T01:17:48;37.19;36.17;38.15;;
67322;Laerm;57666;51.436;5.978;2023-10-08T01:18:08;37.19;35.91;38.61;;
67322;Laerm;57666;51.436;5.978;2023-10-08T01:18:28;37.20;35.81;38.60;;
67322;Laerm;57666;51.436;5.978;2023-10-08T01:18:43;37.20;36.15;38.16;;
67322;Laerm;57666;51.436;5.978;2023-10-08T01:19:02;37.20;36.02;38.47;;
67322;Laerm;57666;51.436;5.978;2023-10-08T01:19:20;37.26;36.02;38.37;;
67322;Laerm;57666;51.436;5.978;2023-10-08T01:19:38;37.18;35.81;38.63;;
67322;Laerm;57666;51.436;5.978;2023-10-08T01:19:50;37.23;36.03;38.37;;
67322;Laerm;57666;51.436;5.978;2023-10-08T01:20:05;37.19;36.14;38.15;;
67322;Laerm;57666;51.436;5.978;2023-10-08T01:20:31;37.22;35.82;38.40;;
67322;Laerm;57666;51.436;5.978;2023-10-08T01:20:48;37.21;36.11;38.39;;
67322;Laerm;57666;51.436;5.978;2023-10-08T01:21:03;37.22;35.90;39.66;;
67322;Laerm;57666;51.436;5.978;2023-10-08T01:21:21;37.25;36.09;38.35;;
67322;Laerm;57666;51.436;5.978;2023-10-08T01:21:44;37.18;36.05;38.26;;
67322;Laerm;57666;51.436;5.978;2023-10-08T01:22:03;37.14;36.09;38.13;;
67322;Laerm;57666;51.436;5.978;2023-10-08T01:22:31;37.15;35.83;38.45;;
67322;Laerm;57666;51.436;5.978;2023-10-08T01:22:51;37.24;35.88;38.22;;
67322;Laerm;57666;51.436;5.978;2023-10-08T01:23:08;37.24;35.76;38.32;;
67322;Laerm;57666;51.436;5.978;2023-10-08T01:23:26;37.19;35.59;38.19;;
67322;Laerm;57666;51.436;5.978;2023-10-08T01:23:45;37.22;35.87;38.37;;
67322;Laerm;57666;51.436;5.978;2023-10-08T01:24:01;37.19;36.08;38.48;;
67322;Laerm;57666;51.436;5.978;2023-10-08T01:24:26;37.20;35.77;38.58;;
67322;Laerm;57666;51.436;5.978;2023-10-08T01:24:40;37.28;36.08;38.46;;
67322;Laerm;57666;51.436;5.978;2023-10-08T01:25:02;37.18;36.08;38.27;;
67322;Laerm;57666;51.436;5.978;2023-10-08T01:25:13;37.25;36.36;38.32;;
67322;Laerm;57666;51.436;5.978;2023-10-08T01:25:34;37.15;35.98;38.22;;
67322;Laerm;57666;51.436;5.978;2023-10-08T01:25:50;37.14;36.11;38.20;;
67322;Laerm;57666;51.436;5.978;2023-10-08T01:26:07;37.17;35.95;38.25;;
67322;Laerm;57666;51.436;5.978;2023-10-08T01:26:24;37.16;35.63;38.21;;
67322;Laerm;57666;51.436;5.978;2023-10-08T01:26:43;37.16;35.95;38.21;;
67322;Laerm;57666;51.436;5.978;2023-10-08T01:26:56;37.16;36.08;38.18;;
67322;Laerm;57666;51.436;5.978;2023-10-08T01:27:11;37.28;36.19;39.31;;
67322;Laerm;57666;51.436;5.978;2023-10-08T01:27:29;37.25;36.07;39.57;;
67322;Laerm;57666;51.436;5.978;2023-10-08T01:27:47;37.29;36.04;40.80;;
67322;Laerm;57666;51.436;5.978;2023-10-08T01:28:06;37.19;35.98;39.51;;
67322;Laerm;57666;51.436;5.978;2023-10-08T01:28:42;37.22;35.97;38.85;;
67322;Laerm;57666;51.436;5.978;2023-10-08T01:29:14;37.21;36.18;38.40;;
67322;Laerm;57666;51.436;5.978;2023-10-08T01:29:33;37.22;36.02;38.26;;
67322;Laerm;57666;51.436;5.978;2023-10-08T01:29:46;37.18;36.05;38.48;;
67322;Laerm;57666;51.436;5.978;2023-10-08T01:30:00;37.18;35.73;38.41;;
67322;Laerm;57666;51.436;5.978;2023-10-08T01:30:25;37.20;35.87;38.87;;
67322;Laerm;57666;51.436;5.978;2023-10-08T01:30:45;37.22;35.91;38.44;;
67322;Laerm;57666;51.436;5.978;2023-10-08T01:30:59;37.22;36.06;38.16;;
67322;Laerm;57666;51.436;5.978;2023-10-08T01:31:17;37.32;36.07;40.65;;
67322;Laerm;57666;51.436;5.978;2023-10-08T01:31:30;37.24;35.53;38.32;;
67322;Laerm;57666;51.436;5.978;2023-10-08T01:31:45;37.20;36.04;38.39;;
67322;Laerm;57666;51.436;5.978;2023-10-08T01:32:04;37.19;35.89;38.37;;
67322;Laerm;57666;51.436;5.978;2023-10-08T01:32:30;37.19;35.89;38.27;;
67322;Laerm;57666;51.436;5.978;2023-10-08T01:32:46;37.17;35.93;38.25;;
67322;Laerm;57666;51.436;5.978;2023-10-08T01:33:03;37.19;36.10;38.41;;
67322;Laerm;57666;51.436;5.978;2023-10-08T01:33:21;37.20;36.10;38.23;;
67322;Laerm;57666;51.436;5.978;2023-10-08T01:33:45;37.17;35.85;38.30;;
67322;Laerm;57666;51.436;5.978;2023-10-08T01:34:39;37.16;35.76;38.22;;
67322;Laerm;57666;51.436;5.978;2023-10-08T01:35:14;37.17;36.07;38.42;;
67322;Laerm;57666;51.436;5.978;2023-10-08T01:35:44;37.12;35.87;38.26;;
67322;Laerm;57666;51.436;5.978;2023-10-08T01:35:59;37.08;35.91;38.42;;
67322;Laerm;57666;51.436;5.978;2023-10-08T01:36:18;37.11;36.09;38.40;;
67322;Laerm;57666;51.436;5.978;2023-10-08T01:36:43;37.14;35.88;38.34;;
67322;Laerm;57666;51.436;5.978;2023-10-08T01:36:57;37.17;35.77;38.42;;
67322;Laerm;57666;51.436;5.978;2023-10-08T01:37:23;37.11;35.74;38.11;;
67322;Laerm;57666;51.436;5.978;2023-10-08T01:37:51;37.10;35.99;38.16;;
67322;Laerm;57666;51.436;5.978;2023-10-08T01:38:06;37.19;36.02;38.34;;
67322;Laerm;57666;51.436;5.978;2023-10-08T01:38:27;37.14;35.92;38.42;;
67322;Laerm;57666;51.436;5.978;2023-10-08T01:38:41;37.11;36.00;38.32;;
67322;Laerm;57666;51.436;5.978;2023-10-08T01:38:56;37.14;35.94;38.60;;
67322;Laerm;57666;51.436;5.978;2023-10-08T01:39:07;37.13;35.72;38.17;;
67322;Laerm;57666;51.436;5.978;2023-10-08T01:39:27;37.11;35.97;38.40;;
67322;Laerm;57666;51.436;5.978;2023-10-08T01:39:41;37.20;35.60;38.34;;
67322;Laerm;57666;51.436;5.978;2023-10-08T01:40:02;37.11;36.04;38.34;;
67322;Laerm;57666;51.436;5.978;2023-10-08T01:40:19;37.16;35.89;38.26;;
67322;Laerm;57666;51.436;5.978;2023-10-08T01:40:30;37.18;35.76;38.19;;
67322;Laerm;57666;51.436;5.978;2023-10-08T01:40:41;37.20;36.01;38.15;;
67322;Laerm;57666;51.436;5.978;2023-10-08T01:41:01;37.20;36.01;38.38;;
67322;Laerm;57666;51.436;5.978;2023-10-08T01:41:26;37.12;35.91;38.38;;
67322;Laerm;57666;51.436;5.978;2023-10-08T01:41:44;37.18;36.03;38.34;;
67322;Laerm;57666;51.436;5.978;2023-10-08T01:41:57;37.21;35.76;38.72;;
67322;Laerm;57666;51.436;5.978;2023-10-08T01:42:08;37.18;35.97;38.58;;
67322;Laerm;57666;51.436;5.978;2023-10-08T01:42:28;37.12;35.81;38.26;;
67322;Laerm;57666;51.436;5.978;2023-10-08T01:42:53;37.13;35.78;38.25;;
67322;Laerm;57666;51.436;5.978;2023-10-08T01:43:09;37.14;35.79;38.17;;
67322;Laerm;57666;51.436;5.978;2023-10-08T01:43:26;37.16;35.82;38.28;;
67322;Laerm;57666;51.436;5.978;2023-10-08T01:43:42;37.19;36.07;38.25;;
67322;Laerm;57666;51.436;5.978;2023-10-08T01:43:56;37.14;35.94;38.17;;
67322;Laerm;57666;51.436;5.978;2023-10-08T01:44:25;37.30;35.97;40.58;;
67322;Laerm;57666;51.436;5.978;2023-10-08T01:44:50;37.20;36.07;38.36;;
67322;Laerm;57666;51.436;5.978;2023-10-08T01:45:05;37.20;35.80;38.38;;
67322;Laerm;57666;51.436;5.978;2023-10-08T01:45:40;37.13;35.48;38.58;;
67322;Laerm;57666;51.436;5.978;2023-10-08T01:45:53;37.22;36.00;38.46;;
67322;Laerm;57666;51.436;5.978;2023-10-08T01:46:11;37.54;35.80;39.49;;
67322;Laerm;57666;51.436;5.978;2023-10-08T01:46:25;39.82;37.40;42.49;;
67322;Laerm;57666;51.436;5.978;2023-10-08T01:46:36;43.19;40.91;44.76;;
67322;Laerm;57666;51.436;5.978;2023-10-08T01:46:56;45.88;43.00;50.60;;
67322;Laerm;57666;51.436;5.978;2023-10-08T01:47:08;45.83;43.61;48.41;;
67322;Laerm;57666;51.436;5.978;2023-10-08T01:47:24;43.32;39.41;46.08;;
67322;Laerm;57666;51.436;5.978;2023-10-08T01:47:47;39.24;37.56;41.38;;
67322;Laerm;57666;51.436;5.978;2023-10-08T01:48:07;37.95;36.39;39.31;;
67322;Laerm;57666;51.436;5.978;2023-10-08T01:48:21;38.18;36.43;39.86;;
67322;Laerm;57666;51.436;5.978;2023-10-08T01:48:55;37.63;36.04;39.77;;
67322;Laerm;57666;51.436;5.978;2023-10-08T01:49:21;37.37;36.14;38.53;;
67322;Laerm;57666;51.436;5.978;2023-10-08T01:49:59;37.24;35.71;38.55;;
67322;Laerm;57666;51.436;5.978;2023-10-08T01:50:30;37.20;36.00;39.69;;
67322;Laerm;57666;51.436;5.978;2023-10-08T01:50:45;37.13;35.88;38.16;;
67322;Laerm;57666;51.436;5.978;2023-10-08T01:51:03;37.16;35.94;38.30;;
67322;Laerm;57666;51.436;5.978;2023-10-08T01:51:22;37.19;36.10;38.30;;
67322;Laerm;57666;51.436;5.978;2023-10-08T01:51:47;37.18;35.90;38.35;;
67322;Laerm;57666;51.436;5.978;2023-10-08T01:52:01;37.13;35.57;38.44;;
67322;Laerm;57666;51.436;5.978;2023-10-08T01:52:32;37.22;35.65;38.85;;
67322;Laerm;57666;51.436;5.978;2023-10-08T01:52:48;37.21;35.80;38.24;;
67322;Laerm;57666;51.436;5.978;2023-10-08T01:53:01;37.20;35.82;38.50;;
67322;Laerm;57666;51.436;5.978;2023-10-08T01:53:25;37.20;36.00;38.95;;
67322;Laerm;57666;51.436;5.978;2023-10-08T01:53:46;37.26;35.94;38.64;;
67322;Laerm;57666;51.436;5.978;2023-10-08T01:54:16;37.26;36.08;44.87;;
67322;Laerm;57666;51.436;5.978;2023-10-08T01:54:49;37.14;35.80;38.27;;
67322;Laerm;57666;51.436;5.978;2023-10-08T01:55:06;37.16;35.95;38.25;;
67322;Laerm;57666;51.436;5.978;2023-10-08T01:55:31;37.11;35.96;39.75;;
67322;Laerm;57666;51.436;5.978;2023-10-08T01:55:51;37.11;36.07;38.33;;
67322;Laerm;57666;51.436;5.978;2023-10-08T01:56:15;37.21;35.68;39.37;;
67322;Laerm;57666;51.436;5.978;2023-10-08T01:56:39;37.15;36.00;38.33;;
67322;Laerm;57666;51.436;5.978;2023-10-08T01:56:55;37.10;36.14;38.21;;
67322;Laerm;57666;51.436;5.978;2023-10-08T01:57:14;37.12;35.78;38.21;;
67322;Laerm;57666;51.436;5.978;2023-10-08T01:57:33;37.19;36.04;38.33;;
67322;Laerm;57666;51.436;5.978;2023-10-08T01:57:57;37.13;35.98;38.46;;
67322;Laerm;57666;51.436;5.978;2023-10-08T01:58:09;37.12;35.81;38.26;;
67322;Laerm;57666;51.436;5.978;2023-10-08T01:58:44;37.15;36.08;38.65;;
67322;Laerm;57666;51.436;5.978;2023-10-08T01:59:00;37.17;35.78;38.14;;
67322;Laerm;57666;51.436;5.978;2023-10-08T01:59:11;37.18;35.93;38.32;;
67322;Laerm;57666;51.436;5.978;2023-10-08T01:59:24;37.19;35.75;38.31;;
67322;Laerm;57666;51.436;5.978;2023-10-08T01:59:55;37.18;36.00;38.56;;
67322;Laerm;57666;51.436;5.978;2023-10-08T02:00:06;37.25;36.08;39.46;;
67322;Laerm;57666;51.436;5.978;2023-10-08T02:00:19;37.39;35.84;39.68;;
67322;Laerm;57666;51.436;5.978;2023-10-08T02:00:57;37.19;36.13;38.41;;
67322;Laerm;57666;51.436;5.978;2023-10-08T02:01:31;37.14;35.76;38.22;;